sensor_id;sensor_type;location;lat;lon;timestamp;P1;durP1;ratioP1;P2;durP2;ratioP2
18376;SDS011;9315;52.624;13.544;2023-11-19T00:00:18;10.57;;;6.67;;
18376;SDS011;9315;52.624;13.544;2023-11-19T00:02:46;8.63;;;6.03;;
18376;SDS011;9315;52.624;13.544;2023-11-19T00:05:14;9.30;;;6.60;;
18376;SDS011;9315;52.624;13.544;2023-11-19T00:07:41;10.63;;;6.70;;
18376;SDS011;9315;52.624;13.544;2023-11-19T00:10:13;10.17;;;6.80;;
18376;SDS011;9315;52.624;13.544;2023-11-19T00:12:46;8.83;;;6.17;;
18376;SDS011;9315;52.624;13.544;2023-11-19T00:15:16;11.47;;;7.17;;
18376;SDS011;9315;52.624;13.544;2023-11-19T00:17:46;12.40;;;6.67;;
18376;SDS011;9315;52.624;13.544;2023-11-19T00:20:16;13.20;;;6.43;;
18376;SDS011;9315;52.624;13.544;2023-11-19T00:22:46;8.37;;;5.93;;
18376;SDS011;9315;52.624;13.544;2023-11-19T00:25:16;9.23;;;6.53;;
18376;SDS011;9315;52.624;13.544;2023-11-19T00:27:45;9.00;;;6.47;;
18376;SDS011;9315;52.624;13.544;2023-11-19T00:30:13;12.37;;;6.93;;
18376;SDS011;9315;52.624;13.544;2023-11-19T00:32:42;10.67;;;6.30;;
18376;SDS011;9315;52.624;13.544;2023-11-19T00:35:09;9.77;;;6.03;;
18376;SDS011;9315;52.624;13.544;2023-11-19T00:37:37;11.80;;;6.77;;
18376;SDS011;9315;52.624;13.544;2023-11-19T00:40:04;10.10;;;5.97;;
18376;SDS011;9315;52.624;13.544;2023-11-19T00:42:33;8.27;;;5.43;;
18376;SDS011;9315;52.624;13.544;2023-11-19T00:45:00;10.57;;;6.73;;
18376;SDS011;9315;52.624;13.544;2023-11-19T00:47:28;10.60;;;6.10;;
18376;SDS011;9315;52.624;13.544;2023-11-19T00:49:55;10.30;;;6.00;;
18376;SDS011;9315;52.624;13.544;2023-11-19T00:52:22;8.77;;;5.73;;
18376;SDS011;9315;52.624;13.544;2023-11-19T00:54:50;8.20;;;5.47;;
18376;SDS011;9315;52.624;13.544;2023-11-19T00:57:17;7.63;;;5.40;;
18376;SDS011;9315;52.624;13.544;2023-11-19T00:59:45;9.23;;;6.10;;
18376;SDS011;9315;52.624;13.544;2023-11-19T01:02:14;8.73;;;5.87;;
18376;SDS011;9315;52.624;13.544;2023-11-19T01:04:41;8.80;;;6.00;;
18376;SDS011;9315;52.624;13.544;2023-11-19T01:07:09;9.13;;;5.70;;
18376;SDS011;9315;52.624;13.544;2023-11-19T01:09:41;7.63;;;5.40;;
18376;SDS011;9315;52.624;13.544;2023-11-19T01:12:09;10.07;;;5.93;;
18376;SDS011;9315;52.624;13.544;2023-11-19T01:14:37;7.50;;;5.37;;
18376;SDS011;9315;52.624;13.544;2023-11-19T01:17:04;8.37;;;5.63;;
18376;SDS011;9315;52.624;13.544;2023-11-19T01:19:32;9.93;;;5.50;;
18376;SDS011;9315;52.624;13.544;2023-11-19T01:22:00;8.27;;;5.70;;
18376;SDS011;9315;52.624;13.544;2023-11-19T01:24:28;9.17;;;5.80;;
18376;SDS011;9315;52.624;13.544;2023-11-19T01:26:57;8.93;;;5.33;;
18376;SDS011;9315;52.624;13.544;2023-11-19T01:29:26;9.17;;;4.90;;
18376;SDS011;9315;52.624;13.544;2023-11-19T01:31:54;8.37;;;5.47;;
18376;SDS011;9315;52.624;13.544;2023-11-19T01:34:21;7.50;;;5.57;;
18376;SDS011;9315;52.624;13.544;2023-11-19T01:36:49;7.87;;;5.50;;
18376;SDS011;9315;52.624;13.544;2023-11-19T01:39:16;7.63;;;5.03;;
18376;SDS011;9315;52.624;13.544;2023-11-19T01:41:44;7.70;;;5.23;;
18376;SDS011;9315;52.624;13.544;2023-11-19T01:44:11;6.77;;;4.53;;
18376;SDS011;9315;52.624;13.544;2023-11-19T01:46:43;8.10;;;5.07;;
18376;SDS011;9315;52.624;13.544;2023-11-19T01:49:16;7.63;;;5.50;;
18376;SDS011;9315;52.624;13.544;2023-11-19T01:51:46;7.27;;;5.53;;
18376;SDS011;9315;52.624;13.544;2023-11-19T01:54:15;6.73;;;4.70;;
18376;SDS011;9315;52.624;13.544;2023-11-19T01:56:43;6.57;;;4.87;;
18376;SDS011;9315;52.624;13.544;2023-11-19T01:59:11;7.03;;;4.97;;
18376;SDS011;9315;52.624;13.544;2023-11-19T02:01:40;11.13;;;5.20;;
18376;SDS011;9315;52.624;13.544;2023-11-19T02:04:09;7.67;;;5.10;;
18376;SDS011;9315;52.624;13.544;2023-11-19T02:06:39;8.33;;;5.30;;
18376;SDS011;9315;52.624;13.544;2023-11-19T02:09:08;8.93;;;5.07;;
18376;SDS011;9315;52.624;13.544;2023-11-19T02:11:36;9.43;;;4.87;;
18376;SDS011;9315;52.624;13.544;2023-11-19T02:14:07;8.23;;;4.90;;
18376;SDS011;9315;52.624;13.544;2023-11-19T02:16:34;9.20;;;4.30;;
18376;SDS011;9315;52.624;13.544;2023-11-19T02:19:02;7.97;;;4.90;;
18376;SDS011;9315;52.624;13.544;2023-11-19T02:21:30;7.07;;;5.40;;
18376;SDS011;9315;52.624;13.544;2023-11-19T02:23:57;10.83;;;5.17;;
18376;SDS011;9315;52.624;13.544;2023-11-19T02:30:15;7.40;;;5.20;;
18376;SDS011;9315;52.624;13.544;2023-11-19T02:32:43;7.30;;;4.97;;
18376;SDS011;9315;52.624;13.544;2023-11-19T02:35:10;7.93;;;4.77;;
18376;SDS011;9315;52.624;13.544;2023-11-19T02:37:38;8.27;;;5.43;;
18376;SDS011;9315;52.624;13.544;2023-11-19T02:40:05;7.33;;;5.10;;
18376;SDS011;9315;52.624;13.544;2023-11-19T02:42:36;8.40;;;4.70;;
18376;SDS011;9315;52.624;13.544;2023-11-19T02:45:03;8.73;;;4.97;;
18376;SDS011;9315;52.624;13.544;2023-11-19T02:47:33;8.50;;;4.90;;
18376;SDS011;9315;52.624;13.544;2023-11-19T02:50:01;8.47;;;4.40;;
18376;SDS011;9315;52.624;13.544;2023-11-19T02:52:29;9.93;;;5.00;;
18376;SDS011;9315;52.624;13.544;2023-11-19T02:54:57;6.77;;;4.90;;
18376;SDS011;9315;52.624;13.544;2023-11-19T02:57:24;8.10;;;4.87;;
18376;SDS011;9315;52.624;13.544;2023-11-19T02:59:51;7.47;;;4.50;;
18376;SDS011;9315;52.624;13.544;2023-11-19T03:02:20;8.30;;;4.87;;
18376;SDS011;9315;52.624;13.544;2023-11-19T03:04:48;7.17;;;4.63;;
18376;SDS011;9315;52.624;13.544;2023-11-19T03:07:16;13.83;;;4.50;;
18376;SDS011;9315;52.624;13.544;2023-11-19T03:09:44;9.00;;;4.57;;
18376;SDS011;9315;52.624;13.544;2023-11-19T03:12:11;6.90;;;4.90;;
18376;SDS011;9315;52.624;13.544;2023-11-19T03:14:39;11.27;;;5.10;;
18376;SDS011;9315;52.624;13.544;2023-11-19T03:17:06;8.30;;;4.90;;
18376;SDS011;9315;52.624;13.544;2023-11-19T03:19:36;8.20;;;4.57;;
18376;SDS011;9315;52.624;13.544;2023-11-19T03:22:03;7.73;;;5.03;;
18376;SDS011;9315;52.624;13.544;2023-11-19T03:24:31;8.13;;;4.80;;
18376;SDS011;9315;52.624;13.544;2023-11-19T03:26:58;7.27;;;4.20;;
18376;SDS011;9315;52.624;13.544;2023-11-19T03:29:26;7.13;;;4.83;;
18376;SDS011;9315;52.624;13.544;2023-11-19T03:31:55;8.37;;;4.60;;
18376;SDS011;9315;52.624;13.544;2023-11-19T03:34:22;7.33;;;4.50;;
18376;SDS011;9315;52.624;13.544;2023-11-19T03:36:49;6.40;;;4.07;;
18376;SDS011;9315;52.624;13.544;2023-11-19T03:39:17;7.73;;;4.30;;
18376;SDS011;9315;52.624;13.544;2023-11-19T03:41:47;10.60;;;4.93;;
18376;SDS011;9315;52.624;13.544;2023-11-19T03:44:14;7.80;;;4.57;;
18376;SDS011;9315;52.624;13.544;2023-11-19T03:46:42;8.17;;;4.60;;
18376;SDS011;9315;52.624;13.544;2023-11-19T03:49:11;8.57;;;5.00;;
18376;SDS011;9315;52.624;13.544;2023-11-19T03:51:39;6.90;;;4.93;;
18376;SDS011;9315;52.624;13.544;2023-11-19T03:54:07;9.37;;;4.83;;
18376;SDS011;9315;52.624;13.544;2023-11-19T03:56:35;9.67;;;5.27;;
18376;SDS011;9315;52.624;13.544;2023-11-19T03:59:02;7.77;;;5.10;;
18376;SDS011;9315;52.624;13.544;2023-11-19T04:01:29;7.00;;;4.67;;
18376;SDS011;9315;52.624;13.544;2023-11-19T04:03:57;9.60;;;5.93;;
18376;SDS011;9315;52.624;13.544;2023-11-19T04:06:25;8.13;;;5.13;;
18376;SDS011;9315;52.624;13.544;2023-11-19T04:08:52;7.53;;;5.10;;
18376;SDS011;9315;52.624;13.544;2023-11-19T04:11:20;8.43;;;4.77;;
18376;SDS011;9315;52.624;13.544;2023-11-19T04:13:47;10.23;;;5.87;;
18376;SDS011;9315;52.624;13.544;2023-11-19T04:16:15;9.33;;;5.43;;
18376;SDS011;9315;52.624;13.544;2023-11-19T04:18:42;7.17;;;4.87;;
18376;SDS011;9315;52.624;13.544;2023-11-19T04:21:10;8.10;;;5.40;;
18376;SDS011;9315;52.624;13.544;2023-11-19T04:23:37;8.93;;;5.70;;
18376;SDS011;9315;52.624;13.544;2023-11-19T04:26:05;10.37;;;5.47;;
18376;SDS011;9315;52.624;13.544;2023-11-19T04:28:36;10.43;;;5.53;;
18376;SDS011;9315;52.624;13.544;2023-11-19T04:31:03;9.07;;;5.70;;
18376;SDS011;9315;52.624;13.544;2023-11-19T04:33:32;7.63;;;5.23;;
18376;SDS011;9315;52.624;13.544;2023-11-19T04:36:00;7.57;;;4.90;;
18376;SDS011;9315;52.624;13.544;2023-11-19T04:38:29;8.63;;;6.30;;
18376;SDS011;9315;52.624;13.544;2023-11-19T04:40:57;9.10;;;5.93;;
18376;SDS011;9315;52.624;13.544;2023-11-19T04:43:24;7.90;;;5.80;;
18376;SDS011;9315;52.624;13.544;2023-11-19T04:45:51;9.20;;;6.47;;
18376;SDS011;9315;52.624;13.544;2023-11-19T04:48:19;10.47;;;6.70;;
18376;SDS011;9315;52.624;13.544;2023-11-19T04:50:46;11.40;;;6.83;;
18376;SDS011;9315;52.624;13.544;2023-11-19T04:53:14;9.20;;;6.13;;
18376;SDS011;9315;52.624;13.544;2023-11-19T04:55:42;11.07;;;7.00;;
18376;SDS011;9315;52.624;13.544;2023-11-19T04:58:09;9.40;;;6.60;;
18376;SDS011;9315;52.624;13.544;2023-11-19T05:00:37;11.20;;;7.13;;
18376;SDS011;9315;52.624;13.544;2023-11-19T05:03:04;14.83;;;7.20;;
18376;SDS011;9315;52.624;13.544;2023-11-19T05:05:33;12.27;;;6.83;;
18376;SDS011;9315;52.624;13.544;2023-11-19T05:08:00;11.60;;;7.37;;
18376;SDS011;9315;52.624;13.544;2023-11-19T05:10:28;13.00;;;8.30;;
18376;SDS011;9315;52.624;13.544;2023-11-19T05:12:55;16.33;;;8.87;;
18376;SDS011;9315;52.624;13.544;2023-11-19T05:15:23;17.03;;;8.57;;
18376;SDS011;9315;52.624;13.544;2023-11-19T05:17:51;13.93;;;8.47;;
18376;SDS011;9315;52.624;13.544;2023-11-19T05:20:18;17.70;;;9.90;;
18376;SDS011;9315;52.624;13.544;2023-11-19T05:22:46;14.77;;;9.13;;
18376;SDS011;9315;52.624;13.544;2023-11-19T05:25:13;14.87;;;8.90;;
18376;SDS011;9315;52.624;13.544;2023-11-19T05:27:41;16.73;;;8.67;;
18376;SDS011;9315;52.624;13.544;2023-11-19T05:30:08;16.03;;;8.93;;
18376;SDS011;9315;52.624;13.544;2023-11-19T05:32:39;14.73;;;8.70;;
18376;SDS011;9315;52.624;13.544;2023-11-19T05:35:07;15.93;;;9.20;;
18376;SDS011;9315;52.624;13.544;2023-11-19T05:37:35;15.27;;;9.03;;
18376;SDS011;9315;52.624;13.544;2023-11-19T05:40:02;14.60;;;8.67;;
18376;SDS011;9315;52.624;13.544;2023-11-19T05:42:34;14.17;;;8.50;;
18376;SDS011;9315;52.624;13.544;2023-11-19T05:45:04;11.23;;;7.70;;
18376;SDS011;9315;52.624;13.544;2023-11-19T05:47:34;13.17;;;7.50;;
18376;SDS011;9315;52.624;13.544;2023-11-19T05:50:01;15.13;;;8.80;;
18376;SDS011;9315;52.624;13.544;2023-11-19T05:52:30;13.33;;;8.77;;
18376;SDS011;9315;52.624;13.544;2023-11-19T05:55:00;14.13;;;7.40;;
18376;SDS011;9315;52.624;13.544;2023-11-19T05:57:31;12.37;;;6.70;;
18376;SDS011;9315;52.624;13.544;2023-11-19T06:00:12;15.93;;;9.00;;
18376;SDS011;9315;52.624;13.544;2023-11-19T06:02:42;15.33;;;8.03;;
18376;SDS011;9315;52.624;13.544;2023-11-19T06:05:09;8.90;;;5.90;;
18376;SDS011;9315;52.624;13.544;2023-11-19T06:07:37;11.40;;;7.30;;
18376;SDS011;9315;52.624;13.544;2023-11-19T06:10:05;11.43;;;7.03;;
18376;SDS011;9315;52.624;13.544;2023-11-19T06:12:36;9.77;;;6.40;;
18376;SDS011;9315;52.624;13.544;2023-11-19T06:15:05;9.57;;;6.33;;
18376;SDS011;9315;52.624;13.544;2023-11-19T06:17:35;10.67;;;6.33;;
18376;SDS011;9315;52.624;13.544;2023-11-19T06:20:03;8.93;;;5.90;;
18376;SDS011;9315;52.624;13.544;2023-11-19T06:22:33;11.77;;;6.30;;
18376;SDS011;9315;52.624;13.544;2023-11-19T06:25:00;8.17;;;5.47;;
18376;SDS011;9315;52.624;13.544;2023-11-19T06:27:34;9.03;;;5.67;;
18376;SDS011;9315;52.624;13.544;2023-11-19T06:30:01;9.93;;;5.80;;
18376;SDS011;9315;52.624;13.544;2023-11-19T06:32:30;10.27;;;5.63;;
18376;SDS011;9315;52.624;13.544;2023-11-19T06:34:57;11.67;;;5.53;;
18376;SDS011;9315;52.624;13.544;2023-11-19T06:37:24;13.17;;;6.23;;
18376;SDS011;9315;52.624;13.544;2023-11-19T06:39:53;11.00;;;6.70;;
18376;SDS011;9315;52.624;13.544;2023-11-19T06:42:21;11.17;;;6.33;;
18376;SDS011;9315;52.624;13.544;2023-11-19T06:44:48;10.00;;;6.17;;
18376;SDS011;9315;52.624;13.544;2023-11-19T06:47:16;10.47;;;5.90;;
18376;SDS011;9315;52.624;13.544;2023-11-19T06:49:44;9.03;;;5.50;;
18376;SDS011;9315;52.624;13.544;2023-11-19T06:52:11;10.43;;;6.33;;
18376;SDS011;9315;52.624;13.544;2023-11-19T06:54:39;8.97;;;5.87;;
18376;SDS011;9315;52.624;13.544;2023-11-19T06:57:06;10.13;;;5.60;;
18376;SDS011;9315;52.624;13.544;2023-11-19T06:59:35;7.70;;;5.73;;
18376;SDS011;9315;52.624;13.544;2023-11-19T07:02:03;8.70;;;5.83;;
18376;SDS011;9315;52.624;13.544;2023-11-19T07:04:34;14.10;;;5.80;;
18376;SDS011;9315;52.624;13.544;2023-11-19T07:07:01;8.23;;;5.13;;
18376;SDS011;9315;52.624;13.544;2023-11-19T07:09:29;7.40;;;4.97;;
18376;SDS011;9315;52.624;13.544;2023-11-19T07:11:56;8.17;;;5.43;;
18376;SDS011;9315;52.624;13.544;2023-11-19T07:14:24;6.83;;;5.13;;
18376;SDS011;9315;52.624;13.544;2023-11-19T07:16:51;10.50;;;5.43;;
18376;SDS011;9315;52.624;13.544;2023-11-19T07:19:20;8.40;;;5.10;;
18376;SDS011;9315;52.624;13.544;2023-11-19T07:21:47;12.70;;;5.70;;
18376;SDS011;9315;52.624;13.544;2023-11-19T07:24:15;7.70;;;4.93;;
18376;SDS011;9315;52.624;13.544;2023-11-19T07:26:43;9.10;;;5.47;;
18376;SDS011;9315;52.624;13.544;2023-11-19T07:29:14;10.07;;;5.30;;
18376;SDS011;9315;52.624;13.544;2023-11-19T07:31:55;7.00;;;5.07;;
18376;SDS011;9315;52.624;13.544;2023-11-19T07:34:23;7.87;;;5.00;;
18376;SDS011;9315;52.624;13.544;2023-11-19T07:36:55;7.30;;;4.77;;
18376;SDS011;9315;52.624;13.544;2023-11-19T07:39:29;8.63;;;5.47;;
18376;SDS011;9315;52.624;13.544;2023-11-19T07:41:57;6.97;;;4.50;;
18376;SDS011;9315;52.624;13.544;2023-11-19T07:44:24;7.30;;;5.00;;
18376;SDS011;9315;52.624;13.544;2023-11-19T07:46:52;9.10;;;5.50;;
18376;SDS011;9315;52.624;13.544;2023-11-19T07:49:20;6.77;;;4.47;;
18376;SDS011;9315;52.624;13.544;2023-11-19T07:51:48;7.90;;;5.00;;
18376;SDS011;9315;52.624;13.544;2023-11-19T07:54:15;7.00;;;4.50;;
18376;SDS011;9315;52.624;13.544;2023-11-19T07:56:42;7.60;;;4.83;;
18376;SDS011;9315;52.624;13.544;2023-11-19T07:59:10;6.23;;;4.50;;
18376;SDS011;9315;52.624;13.544;2023-11-19T08:01:38;8.03;;;4.67;;
18376;SDS011;9315;52.624;13.544;2023-11-19T08:04:05;7.70;;;4.73;;
18376;SDS011;9315;52.624;13.544;2023-11-19T08:06:33;6.83;;;4.50;;
18376;SDS011;9315;52.624;13.544;2023-11-19T08:09:01;8.00;;;4.77;;
18376;SDS011;9315;52.624;13.544;2023-11-19T08:11:29;7.13;;;4.63;;
18376;SDS011;9315;52.624;13.544;2023-11-19T08:13:56;7.93;;;5.30;;
18376;SDS011;9315;52.624;13.544;2023-11-19T08:16:24;9.07;;;6.27;;
18376;SDS011;9315;52.624;13.544;2023-11-19T08:18:51;8.63;;;5.40;;
18376;SDS011;9315;52.624;13.544;2023-11-19T08:21:18;7.90;;;5.00;;
18376;SDS011;9315;52.624;13.544;2023-11-19T08:23:47;7.90;;;5.27;;
18376;SDS011;9315;52.624;13.544;2023-11-19T08:26:15;7.13;;;5.23;;
18376;SDS011;9315;52.624;13.544;2023-11-19T08:28:47;9.27;;;5.73;;
18376;SDS011;9315;52.624;13.544;2023-11-19T08:31:14;8.50;;;5.80;;
18376;SDS011;9315;52.624;13.544;2023-11-19T08:33:41;9.93;;;6.10;;
18376;SDS011;9315;52.624;13.544;2023-11-19T08:36:09;8.87;;;6.27;;
18376;SDS011;9315;52.624;13.544;2023-11-19T08:38:44;9.47;;;6.60;;
18376;SDS011;9315;52.624;13.544;2023-11-19T08:41:11;9.77;;;6.13;;
18376;SDS011;9315;52.624;13.544;2023-11-19T08:43:39;10.00;;;6.57;;
18376;SDS011;9315;52.624;13.544;2023-11-19T08:46:10;9.77;;;6.63;;
18376;SDS011;9315;52.624;13.544;2023-11-19T08:48:38;10.93;;;5.97;;
18376;SDS011;9315;52.624;13.544;2023-11-19T08:51:06;10.43;;;6.17;;
18376;SDS011;9315;52.624;13.544;2023-11-19T08:53:34;8.27;;;5.67;;
18376;SDS011;9315;52.624;13.544;2023-11-19T08:56:02;9.27;;;5.83;;
18376;SDS011;9315;52.624;13.544;2023-11-19T08:58:30;9.30;;;6.33;;
18376;SDS011;9315;52.624;13.544;2023-11-19T09:00:58;8.63;;;6.00;;
18376;SDS011;9315;52.624;13.544;2023-11-19T09:03:25;9.83;;;6.00;;
18376;SDS011;9315;52.624;13.544;2023-11-19T09:05:53;8.57;;;5.63;;
18376;SDS011;9315;52.624;13.544;2023-11-19T09:08:21;9.27;;;6.17;;
18376;SDS011;9315;52.624;13.544;2023-11-19T09:10:48;7.87;;;5.40;;
18376;SDS011;9315;52.624;13.544;2023-11-19T09:13:16;8.67;;;6.20;;
18376;SDS011;9315;52.624;13.544;2023-11-19T09:15:43;11.43;;;7.50;;
18376;SDS011;9315;52.624;13.544;2023-11-19T09:18:10;12.80;;;8.60;;
18376;SDS011;9315;52.624;13.544;2023-11-19T09:20:38;16.37;;;9.33;;
18376;SDS011;9315;52.624;13.544;2023-11-19T09:23:06;14.60;;;8.93;;
18376;SDS011;9315;52.624;13.544;2023-11-19T09:25:35;14.60;;;8.83;;
18376;SDS011;9315;52.624;13.544;2023-11-19T09:28:06;14.87;;;9.23;;
18376;SDS011;9315;52.624;13.544;2023-11-19T09:30:35;16.47;;;9.97;;
18376;SDS011;9315;52.624;13.544;2023-11-19T09:33:03;12.73;;;7.73;;
18376;SDS011;9315;52.624;13.544;2023-11-19T09:35:30;10.90;;;7.60;;
18376;SDS011;9315;52.624;13.544;2023-11-19T09:37:58;17.37;;;8.60;;
18376;SDS011;9315;52.624;13.544;2023-11-19T09:40:29;13.10;;;9.07;;
18376;SDS011;9315;52.624;13.544;2023-11-19T09:42:58;10.77;;;7.67;;
18376;SDS011;9315;52.624;13.544;2023-11-19T09:45:27;13.10;;;8.47;;
18376;SDS011;9315;52.624;13.544;2023-11-19T09:47:56;12.30;;;8.50;;
18376;SDS011;9315;52.624;13.544;2023-11-19T09:50:29;13.17;;;9.60;;
18376;SDS011;9315;52.624;13.544;2023-11-19T09:52:57;12.93;;;7.93;;
18376;SDS011;9315;52.624;13.544;2023-11-19T09:55:25;11.03;;;7.20;;
18376;SDS011;9315;52.624;13.544;2023-11-19T09:57:55;8.00;;;5.13;;
18376;SDS011;9315;52.624;13.544;2023-11-19T10:00:26;10.00;;;5.93;;
18376;SDS011;9315;52.624;13.544;2023-11-19T10:02:54;10.80;;;6.33;;
18376;SDS011;9315;52.624;13.544;2023-11-19T10:05:24;8.43;;;5.97;;
18376;SDS011;9315;52.624;13.544;2023-11-19T10:07:52;10.80;;;6.47;;
18376;SDS011;9315;52.624;13.544;2023-11-19T10:10:22;15.43;;;7.20;;
18376;SDS011;9315;52.624;13.544;2023-11-19T10:12:50;17.47;;;8.43;;
18376;SDS011;9315;52.624;13.544;2023-11-19T10:15:21;13.13;;;6.87;;
18376;SDS011;9315;52.624;13.544;2023-11-19T10:18:01;12.90;;;6.63;;
18376;SDS011;9315;52.624;13.544;2023-11-19T10:20:37;12.77;;;7.80;;
18376;SDS011;9315;52.624;13.544;2023-11-19T10:23:08;14.60;;;7.90;;
18376;SDS011;9315;52.624;13.544;2023-11-19T10:25:37;13.17;;;5.90;;
18376;SDS011;9315;52.624;13.544;2023-11-19T10:28:07;8.13;;;4.43;;
18376;SDS011;9315;52.624;13.544;2023-11-19T10:30:34;8.47;;;3.90;;
18376;SDS011;9315;52.624;13.544;2023-11-19T10:33:08;9.93;;;3.70;;
18376;SDS011;9315;52.624;13.544;2023-11-19T10:35:51;6.83;;;2.70;;
18376;SDS011;9315;52.624;13.544;2023-11-19T10:38:26;10.53;;;4.37;;
18376;SDS011;9315;52.624;13.544;2023-11-19T10:40:53;8.57;;;3.17;;
18376;SDS011;9315;52.624;13.544;2023-11-19T10:43:21;6.90;;;3.13;;
18376;SDS011;9315;52.624;13.544;2023-11-19T10:45:50;8.23;;;2.63;;
18376;SDS011;9315;52.624;13.544;2023-11-19T10:48:18;10.40;;;3.33;;
18376;SDS011;9315;52.624;13.544;2023-11-19T10:50:49;8.27;;;3.17;;
18376;SDS011;9315;52.624;13.544;2023-11-19T10:53:21;7.20;;;2.97;;
18376;SDS011;9315;52.624;13.544;2023-11-19T10:55:53;8.43;;;3.10;;
18376;SDS011;9315;52.624;13.544;2023-11-19T10:58:23;9.03;;;2.97;;
18376;SDS011;9315;52.624;13.544;2023-11-19T11:00:52;9.10;;;2.80;;
18376;SDS011;9315;52.624;13.544;2023-11-19T11:03:28;9.33;;;2.93;;
18376;SDS011;9315;52.624;13.544;2023-11-19T11:06:06;9.80;;;2.60;;
18376;SDS011;9315;52.624;13.544;2023-11-19T11:08:39;9.00;;;3.07;;
18376;SDS011;9315;52.624;13.544;2023-11-19T11:11:07;12.57;;;3.13;;
18376;SDS011;9315;52.624;13.544;2023-11-19T11:13:39;10.93;;;3.40;;
18376;SDS011;9315;52.624;13.544;2023-11-19T11:16:10;10.93;;;3.23;;
18376;SDS011;9315;52.624;13.544;2023-11-19T11:18:39;10.90;;;3.07;;
18376;SDS011;9315;52.624;13.544;2023-11-19T11:37:41;6.87;;;2.50;;
18376;SDS011;9315;52.624;13.544;2023-11-19T11:40:19;11.77;;;2.83;;
18376;SDS011;9315;52.624;13.544;2023-11-19T11:42:47;17.50;;;5.77;;
18376;SDS011;9315;52.624;13.544;2023-11-19T11:45:15;14.10;;;3.53;;
18376;SDS011;9315;52.624;13.544;2023-11-19T11:50:11;18.47;;;4.83;;
18376;SDS011;9315;52.624;13.544;2023-11-19T11:58:05;17.63;;;4.57;;
18376;SDS011;9315;52.624;13.544;2023-11-19T12:00:36;27.50;;;8.10;;
18376;SDS011;9315;52.624;13.544;2023-11-19T12:03:08;23.60;;;8.17;;
18376;SDS011;9315;52.624;13.544;2023-11-19T12:05:42;18.80;;;4.90;;
18376;SDS011;9315;52.624;13.544;2023-11-19T12:08:14;16.37;;;3.73;;
18376;SDS011;9315;52.624;13.544;2023-11-19T12:10:53;17.47;;;3.20;;
18376;SDS011;9315;52.624;13.544;2023-11-19T12:13:42;20.03;;;3.30;;
18376;SDS011;9315;52.624;13.544;2023-11-19T12:16:22;18.23;;;3.20;;
18376;SDS011;9315;52.624;13.544;2023-11-19T12:18:49;18.90;;;3.13;;
18376;SDS011;9315;52.624;13.544;2023-11-19T12:21:29;21.37;;;3.70;;
18376;SDS011;9315;52.624;13.544;2023-11-19T12:23:58;18.50;;;3.53;;
18376;SDS011;9315;52.624;13.544;2023-11-19T12:26:34;24.93;;;3.57;;
18376;SDS011;9315;52.624;13.544;2023-11-19T12:29:07;20.23;;;3.57;;
18376;SDS011;9315;52.624;13.544;2023-11-19T12:31:36;20.03;;;3.50;;
18376;SDS011;9315;52.624;13.544;2023-11-19T12:34:07;24.97;;;3.43;;
18376;SDS011;9315;52.624;13.544;2023-11-19T12:36:39;14.90;;;2.90;;
18376;SDS011;9315;52.624;13.544;2023-11-19T12:39:08;20.77;;;3.43;;
18376;SDS011;9315;52.624;13.544;2023-11-19T12:41:49;23.37;;;3.90;;
18376;SDS011;9315;52.624;13.544;2023-11-19T12:44:18;20.97;;;2.97;;
18376;SDS011;9315;52.624;13.544;2023-11-19T12:46:46;28.43;;;4.53;;
18376;SDS011;9315;52.624;13.544;2023-11-19T12:49:27;19.83;;;3.33;;
18376;SDS011;9315;52.624;13.544;2023-11-19T12:51:55;20.27;;;4.23;;
18376;SDS011;9315;52.624;13.544;2023-11-19T12:54:32;32.87;;;4.53;;
18376;SDS011;9315;52.624;13.544;2023-11-19T12:57:04;23.93;;;5.03;;
18376;SDS011;9315;52.624;13.544;2023-11-19T12:59:32;21.77;;;4.03;;
18376;SDS011;9315;52.624;13.544;2023-11-19T13:02:00;22.80;;;3.10;;
18376;SDS011;9315;52.624;13.544;2023-11-19T13:04:31;21.07;;;3.53;;
18376;SDS011;9315;52.624;13.544;2023-11-19T13:06:59;24.03;;;3.83;;
18376;SDS011;9315;52.624;13.544;2023-11-19T13:09:31;19.93;;;3.70;;
18376;SDS011;9315;52.624;13.544;2023-11-19T13:11:59;22.03;;;3.93;;
18376;SDS011;9315;52.624;13.544;2023-11-19T13:14:38;19.90;;;2.90;;
18376;SDS011;9315;52.624;13.544;2023-11-19T13:17:06;21.63;;;3.43;;
18376;SDS011;9315;52.624;13.544;2023-11-19T13:19:35;17.83;;;2.90;;
18376;SDS011;9315;52.624;13.544;2023-11-19T13:22:02;23.93;;;3.60;;
18376;SDS011;9315;52.624;13.544;2023-11-19T13:24:30;19.93;;;3.40;;
18376;SDS011;9315;52.624;13.544;2023-11-19T13:26:57;18.77;;;3.63;;
18376;SDS011;9315;52.624;13.544;2023-11-19T13:29:25;15.97;;;2.97;;
18376;SDS011;9315;52.624;13.544;2023-11-19T13:31:55;18.13;;;3.43;;
18376;SDS011;9315;52.624;13.544;2023-11-19T13:34:22;21.60;;;3.70;;
18376;SDS011;9315;52.624;13.544;2023-11-19T13:36:50;19.60;;;3.40;;
18376;SDS011;9315;52.624;13.544;2023-11-19T13:39:17;20.40;;;3.20;;
18376;SDS011;9315;52.624;13.544;2023-11-19T13:41:49;20.50;;;3.47;;
18376;SDS011;9315;52.624;13.544;2023-11-19T13:44:17;18.47;;;4.00;;
18376;SDS011;9315;52.624;13.544;2023-11-19T13:46:45;16.43;;;3.30;;
18376;SDS011;9315;52.624;13.544;2023-11-19T13:49:13;22.30;;;3.33;;
18376;SDS011;9315;52.624;13.544;2023-11-19T13:51:42;18.57;;;2.90;;
18376;SDS011;9315;52.624;13.544;2023-11-19T13:54:09;18.23;;;3.40;;
18376;SDS011;9315;52.624;13.544;2023-11-19T13:56:36;16.23;;;2.60;;
18376;SDS011;9315;52.624;13.544;2023-11-19T13:59:04;26.53;;;3.77;;
18376;SDS011;9315;52.624;13.544;2023-11-19T14:01:31;21.87;;;3.60;;
18376;SDS011;9315;52.624;13.544;2023-11-19T14:03:59;24.60;;;3.67;;
18376;SDS011;9315;52.624;13.544;2023-11-19T14:06:26;24.03;;;4.43;;
18376;SDS011;9315;52.624;13.544;2023-11-19T14:08:54;26.43;;;4.57;;
18376;SDS011;9315;52.624;13.544;2023-11-19T14:11:21;27.37;;;5.80;;
18376;SDS011;9315;52.624;13.544;2023-11-19T14:13:48;23.63;;;4.07;;
18376;SDS011;9315;52.624;13.544;2023-11-19T14:16:16;21.40;;;3.70;;
18376;SDS011;9315;52.624;13.544;2023-11-19T14:18:45;19.57;;;3.87;;
18376;SDS011;9315;52.624;13.544;2023-11-19T14:21:15;23.40;;;4.03;;
18376;SDS011;9315;52.624;13.544;2023-11-19T14:23:43;22.43;;;3.97;;
18376;SDS011;9315;52.624;13.544;2023-11-19T14:26:10;26.33;;;4.27;;
18376;SDS011;9315;52.624;13.544;2023-11-19T14:28:38;26.47;;;4.17;;
18376;SDS011;9315;52.624;13.544;2023-11-19T14:31:21;24.43;;;4.00;;
18376;SDS011;9315;52.624;13.544;2023-11-19T14:33:48;22.50;;;4.03;;
18376;SDS011;9315;52.624;13.544;2023-11-19T14:36:16;26.20;;;4.50;;
18376;SDS011;9315;52.624;13.544;2023-11-19T14:38:43;24.93;;;4.30;;
18376;SDS011;9315;52.624;13.544;2023-11-19T14:41:10;28.17;;;4.30;;
18376;SDS011;9315;52.624;13.544;2023-11-19T14:43:39;25.50;;;4.30;;
18376;SDS011;9315;52.624;13.544;2023-11-19T14:46:06;28.33;;;4.60;;
18376;SDS011;9315;52.624;13.544;2023-11-19T14:48:34;25.17;;;4.43;;
18376;SDS011;9315;52.624;13.544;2023-11-19T14:51:02;26.80;;;4.90;;
18376;SDS011;9315;52.624;13.544;2023-11-19T14:53:30;23.30;;;4.40;;
18376;SDS011;9315;52.624;13.544;2023-11-19T14:55:57;32.90;;;4.50;;
18376;SDS011;9315;52.624;13.544;2023-11-19T14:58:25;37.37;;;5.00;;
18376;SDS011;9315;52.624;13.544;2023-11-19T15:00:53;29.57;;;4.93;;
18376;SDS011;9315;52.624;13.544;2023-11-19T15:03:20;27.17;;;4.37;;
18376;SDS011;9315;52.624;13.544;2023-11-19T15:05:48;26.23;;;4.70;;
18376;SDS011;9315;52.624;13.544;2023-11-19T15:08:17;31.53;;;4.20;;
18376;SDS011;9315;52.624;13.544;2023-11-19T15:10:44;26.20;;;4.43;;
18376;SDS011;9315;52.624;13.544;2023-11-19T15:13:13;24.27;;;4.20;;
18376;SDS011;9315;52.624;13.544;2023-11-19T15:15:41;28.33;;;4.20;;
18376;SDS011;9315;52.624;13.544;2023-11-19T15:18:08;30.60;;;4.70;;